createdAt,value
2022-10-15T00:01:06.320Z,98007.28
2022-10-15T00:03:35.699Z,98010.81
2022-10-15T00:06:11.781Z,98008.84
2022-10-15T00:08:39.526Z,98004.22
2022-10-15T00:11:13.442Z,98008.53
2022-10-15T00:13:40.487Z,98007.28
2022-10-15T00:16:10.917Z,98014.31
2022-10-15T00:18:37.641Z,98015.91
2022-10-15T00:21:14.143Z,98014.44
2022-10-15T00:23:41.289Z,98005.09
2022-10-15T00:26:11.960Z,98010.91
2022-10-15T00:28:39.097Z,98015.91
2022-10-15T00:31:11.651Z,98012.72
2022-10-15T00:33:38.876Z,98019.00
2022-10-15T00:36:19.260Z,98015.91
2022-10-15T00:38:46.565Z,98012.84
2022-10-15T00:41:28.287Z,98014.44
2022-10-15T00:43:58.610Z,98018.41
2022-10-15T00:46:41.870Z,98009.88
2022-10-15T00:49:32.153Z,98006.81
2022-10-15T00:52:14.107Z,98010.00
2022-10-15T00:54:44.439Z,98004.53
2022-10-15T00:57:12.344Z,98010.00
2022-10-15T00:59:47.671Z,98006.13
2022-10-15T01:02:15.566Z,98003.41
2022-10-15T01:04:42.406Z,98003.03
2022-10-15T01:07:09.246Z,97996.78
2022-10-15T01:09:36.197Z,98001.13
2022-10-15T01:12:04.176Z,97995.66
2022-10-15T01:14:54.985Z,97996.44
2022-10-15T01:17:40.375Z,97995.66
2022-10-15T01:20:42.534Z,97985.50
2022-10-15T01:23:31.292Z,97995.66
2022-10-15T01:26:43.150Z,98003.41
2022-10-15T01:29:31.727Z,97992.34
2022-10-15T01:32:20.562Z,97999.75
2022-10-15T01:35:00.869Z,97995.78
2022-10-15T01:37:52.785Z,97975.53
2022-10-15T01:40:55.054Z,97977.50
2022-10-15T01:43:29.054Z,97987.72
2022-10-15T01:46:06.248Z,97978.47
2022-10-15T01:48:36.411Z,97983.59
2022-10-15T01:51:06.202Z,97982.00
2022-10-15T01:53:34.840Z,97988.59
2022-10-15T01:56:09.810Z,97994.41
2022-10-15T01:58:43.123Z,97992.81
2022-10-15T02:01:10.417Z,97983.84
2022-10-15T02:03:46.044Z,97992.81
2022-10-15T02:06:19.573Z,97992.47
2022-10-15T02:09:01.299Z,97990.19
2022-10-15T02:11:29.867Z,97981.34
2022-10-15T02:14:02.672Z,97987.44
2022-10-15T02:16:43.792Z,97986.13
2022-10-15T02:19:36.883Z,97983.47
2022-10-15T02:22:13.644Z,98000.94
2022-10-15T02:24:58.042Z,97984.63
2022-10-15T02:27:27.834Z,97995.38
2022-10-15T02:29:57.440Z,98007.91
2022-10-15T02:32:25.943Z,98005.63
2022-10-15T02:34:53.898Z,98002.88
2022-10-15T02:37:24.301Z,98000.59
2022-10-15T02:39:51.235Z,98006.50
2022-10-15T02:42:18.737Z,98002.63
2022-10-15T02:44:45.526Z,97998.75
2022-10-15T02:47:12.771Z,97997.72
2022-10-15T02:49:39.694Z,97998.94
2022-10-15T02:52:06.435Z,97999.38
2022-10-15T02:54:33.117Z,98005.66
2022-10-15T02:56:59.842Z,98000.19
2022-10-15T02:59:26.542Z,97992.50
2022-10-15T03:01:53.236Z,97996.47
2022-10-15T03:04:20.053Z,98001.59
2022-10-15T03:06:46.828Z,98004.31
2022-10-15T03:09:13.957Z,98012.88
2022-10-15T03:11:40.739Z,98007.94
2022-10-15T03:14:07.512Z,98018.59
2022-10-15T03:16:34.234Z,98010.75
2022-10-15T03:19:00.902Z,98016.22
2022-10-15T03:21:30.780Z,98014.97
2022-10-15T03:23:58.695Z,98021.97
2022-10-15T03:26:25.775Z,98025.91
2022-10-15T03:28:52.508Z,98017.28
2022-10-15T03:31:19.564Z,98013.31
2022-10-15T03:33:46.332Z,98009.88
2022-10-15T03:36:13.038Z,98023.56
2022-10-15T03:38:39.778Z,98026.63
2022-10-15T03:41:06.468Z,98037.56
2022-10-15T03:43:35.386Z,98036.78
2022-10-15T03:46:05.354Z,98033.59
2022-10-15T03:48:32.049Z,98036.34
2022-10-15T03:50:58.773Z,98033.94
2022-10-15T03:53:25.610Z,98036.66
2022-10-15T03:55:52.332Z,98038.63
2022-10-15T03:58:19.038Z,98032.34
2022-10-15T04:00:45.755Z,98037.38
2022-10-15T04:03:12.469Z,98047.16
2022-10-15T04:05:39.106Z,98042.84
2022-10-15T04:08:06.227Z,98042.84
2022-10-15T04:10:32.900Z,98053.78
2022-10-15T04:12:59.560Z,98051.47
2022-10-15T04:15:27.740Z,98054.22
2022-10-15T04:17:55.522Z,98062.78
2022-10-15T04:20:22.527Z,98060.13
2022-10-15T04:22:49.250Z,98061.63
2022-10-15T04:25:16.909Z,98067.09
2022-10-15T04:27:43.709Z,98067.88
2022-10-15T04:30:11.372Z,98071.41
2022-10-15T04:32:38.165Z,98067.53
2022-10-15T04:35:05.922Z,98074.16
2022-10-15T04:37:34.229Z,98075.31
2022-10-15T04:40:01.063Z,98080.75
2022-10-15T04:42:29.806Z,98088.16
2022-10-15T04:44:57.022Z,98093.63
2022-10-15T04:47:24.051Z,98097.59
2022-10-15T04:49:50.941Z,98089.03
2022-10-15T04:52:17.617Z,98091.00
2022-10-15T04:54:44.275Z,98090.63
2022-10-15T04:57:11.709Z,98097.69
2022-10-15T04:59:38.437Z,98103.16
2022-10-15T05:02:05.186Z,98102.81
2022-10-15T05:04:31.937Z,98103.16
2022-10-15T05:06:58.613Z,98107.03
2022-10-15T05:09:25.382Z,98113.19
2022-10-15T05:11:52.152Z,98113.91
2022-10-15T05:14:18.787Z,98119.72
2022-10-15T05:16:45.510Z,98123.94
2022-10-15T05:19:12.397Z,98123.50
2022-10-15T05:21:39.392Z,98114.06
2022-10-15T05:24:06.587Z,98119.41
2022-10-15T05:26:33.295Z,98123.66
2022-10-15T05:29:00.390Z,98120.47
2022-10-15T05:31:29.720Z,98126.28
2022-10-15T05:33:56.800Z,98123.56
2022-10-15T05:36:26.138Z,98120.38
2022-10-15T05:38:55.503Z,98120.38
2022-10-15T05:41:22.245Z,98133.69
2022-10-15T05:43:50.652Z,98146.56
2022-10-15T05:46:19.010Z,98149.28
2022-10-15T05:48:50.184Z,98148.13
2022-10-15T05:51:17.840Z,98143.03
2022-10-15T05:53:46.400Z,98143.38
2022-10-15T05:56:14.854Z,98144.50
2022-10-15T05:58:41.797Z,98146.47
2022-10-15T06:01:11.265Z,98152.25
2022-10-15T06:03:39.536Z,98163.19
2022-10-15T06:06:17.871Z,98165.13
2022-10-15T06:08:44.689Z,98164.78
2022-10-15T06:11:11.567Z,98171.75
2022-10-15T06:13:40.503Z,98165.91
2022-10-15T06:16:08.008Z,98170.25
2022-10-15T06:18:35.546Z,98164.78
2022-10-15T06:21:03.140Z,98171.06
2022-10-15T06:23:30.463Z,98176.84
2022-10-15T06:25:57.196Z,98175.72
2022-10-15T06:28:24.134Z,98179.25
2022-10-15T06:30:50.917Z,98187.44
2022-10-15T06:33:17.670Z,98185.84
2022-10-15T06:35:44.437Z,98198.38
2022-10-15T06:38:11.694Z,98208.94
2022-10-15T06:40:39.309Z,98208.59
2022-10-15T06:43:08.097Z,98209.41
2022-10-15T06:45:37.090Z,98204.03
2022-10-15T06:48:04.928Z,98214.28
2022-10-15T06:50:32.879Z,98213.94
2022-10-15T06:55:26.565Z,98216.41
2022-10-15T06:57:53.297Z,98223.47
2022-10-15T07:00:20.097Z,98225.88
2022-10-15T07:02:47.050Z,98220.03
2022-10-15T07:05:13.833Z,98224.03
2022-10-15T07:07:40.912Z,98228.44
2022-10-15T07:10:09.039Z,98226.59
2022-10-15T07:12:36.036Z,98229.91
2022-10-15T07:15:02.768Z,98228.84
2022-10-15T07:17:30.759Z,98237.63
2022-10-15T07:19:57.690Z,98230.31
2022-10-15T07:22:24.653Z,98232.69
2022-10-15T07:24:51.702Z,98243.28
2022-10-15T07:27:19.234Z,98235.06
2022-10-15T07:29:47.121Z,98243.63
2022-10-15T07:32:13.881Z,98247.50
2022-10-15T07:34:40.543Z,98246.72
2022-10-15T07:37:07.235Z,98251.38
2022-10-15T07:39:37.728Z,98252.97
2022-10-15T07:42:07.507Z,98256.16
2022-10-15T07:44:34.274Z,98258.88
2022-10-15T07:47:00.990Z,98264.00
2022-10-15T07:49:28.027Z,98263.69
2022-10-15T07:51:54.746Z,98261.44
2022-10-15T07:54:21.495Z,98271.31
2022-10-15T07:56:48.455Z,98269.81
2022-10-15T07:59:15.286Z,98269.91
2022-10-15T08:01:43.340Z,98277.41
2022-10-15T08:04:11.386Z,98272.38
2022-10-15T08:06:38.798Z,98274.88
2022-10-15T08:09:06.923Z,98267.13
2022-10-15T08:11:33.925Z,98276.56
2022-10-15T08:14:00.822Z,98282.94
2022-10-15T08:16:27.852Z,98281.09
2022-10-15T08:18:54.659Z,98278.34
2022-10-15T08:21:21.441Z,98286.19
2022-10-15T08:23:48.274Z,98279.25
2022-10-15T08:26:15.082Z,98287.19
2022-10-15T08:28:42.087Z,98292.56
2022-10-15T08:31:09.116Z,98285.06
2022-10-15T08:33:37.902Z,98285.94
2022-10-15T08:36:06.439Z,98284.91
2022-10-15T08:38:34.316Z,98284.91
2022-10-15T08:41:02.770Z,98293.56
2022-10-15T08:43:37.234Z,98295.59
2022-10-15T08:46:14.208Z,98296.81
2022-10-15T08:48:47.490Z,98299.75
2022-10-15T08:51:18.483Z,98297.91
2022-10-15T08:53:49.575Z,98298.44
2022-10-15T08:56:29.321Z,98295.44
2022-10-15T08:59:31.585Z,98296.69
2022-10-15T09:02:04.457Z,98293.16
2022-10-15T09:04:41.744Z,98308.34
2022-10-15T09:07:20.877Z,98313.13
2022-10-15T09:09:51.950Z,98311.53
2022-10-15T09:12:18.631Z,98322.38
2022-10-15T09:14:46.483Z,98317.59
2022-10-15T09:17:25.822Z,98316.72
2022-10-15T09:19:55.104Z,98319.47
2022-10-15T09:22:31.548Z,98322.66
2022-10-15T09:24:58.292Z,98320.34
2022-10-15T09:27:32.814Z,98319.31
2022-10-15T09:30:12.990Z,98320.53
2022-10-15T09:32:58.017Z,98321.84
2022-10-15T09:35:50.028Z,98317.81
2022-10-15T09:38:48.451Z,98314.81
2022-10-15T09:41:18.161Z,98327.97
2022-10-15T09:43:49.569Z,98318.03
2022-10-15T09:46:16.395Z,98324.75
2022-10-15T09:49:08.661Z,98324.88
2022-10-15T09:51:44.008Z,98321.97
2022-10-15T09:54:37.751Z,98318.50
2022-10-15T09:57:09.913Z,98322.63
2022-10-15T09:59:36.720Z,98324.69
2022-10-15T10:02:15.729Z,98326.00
2022-10-15T10:04:42.815Z,98329.34
2022-10-15T10:07:34.137Z,98337.88
2022-10-15T10:10:21.301Z,98342.56
2022-10-15T10:12:48.325Z,98342.19
2022-10-15T10:15:35.590Z,98351.28
2022-10-15T10:18:06.454Z,98348.44
2022-10-15T10:20:34.785Z,98345.69
2022-10-15T10:23:19.688Z,98333.56
2022-10-15T10:25:46.712Z,98347.03
2022-10-15T10:28:19.260Z,98346.25
2022-10-15T10:30:52.947Z,98345.56
2022-10-15T10:33:27.164Z,98342.69
2022-10-15T10:35:55.064Z,98355.09
2022-10-15T10:38:33.366Z,98349.44
2022-10-15T10:41:07.510Z,98350.00
2022-10-15T10:43:39.188Z,98354.94
2022-10-15T10:46:16.359Z,98351.13
2022-10-15T10:48:47.877Z,98354.13
2022-10-15T10:51:24.081Z,98349.84
2022-10-15T10:54:14.428Z,98350.66
2022-10-15T10:56:51.426Z,98353.13
2022-10-15T10:59:30.844Z,98347.16
2022-10-15T11:02:03.569Z,98347.03
2022-10-15T11:04:34.632Z,98343.69
2022-10-15T11:07:05.583Z,98344.53
2022-10-15T11:10:13.929Z,98344.47
2022-10-15T11:12:57.834Z,98338.31
2022-10-15T11:15:33.696Z,98335.41
2022-10-15T11:18:40.338Z,98338.31
2022-10-15T11:21:22.307Z,98333.06
2022-10-15T11:24:13.428Z,98324.00
2022-10-15T11:26:59.642Z,98327.84
2022-10-15T11:30:03.322Z,98315.63
2022-10-15T11:33:08.539Z,98329.25
2022-10-15T11:35:53.742Z,98322.81
2022-10-15T11:38:38.323Z,98314.31
2022-10-15T11:41:22.369Z,98315.50
2022-10-15T11:44:07.931Z,98318.50
2022-10-15T11:47:08.969Z,98316.72
2022-10-15T11:49:55.638Z,98308.47
2022-10-15T11:52:28.362Z,98312.84
2022-10-15T11:55:14.950Z,98310.69
2022-10-15T11:57:43.153Z,98294.84
2022-10-15T12:00:49.365Z,98308.00
2022-10-15T12:03:21.454Z,98306.81
2022-10-15T12:06:00.665Z,98312.84
2022-10-15T12:08:32.838Z,98313.16
2022-10-15T12:11:18.400Z,98310.47
2022-10-15T12:14:27.717Z,98302.59
2022-10-15T12:17:27.351Z,98298.94
2022-10-15T12:20:06.930Z,98305.16
2022-10-15T12:22:39.747Z,98299.25
2022-10-15T12:25:27.122Z,98301.06
2022-10-15T12:28:12.128Z,98297.44
2022-10-15T12:30:42.337Z,98300.78
2022-10-15T12:33:29.422Z,98301.56
2022-10-15T12:35:59.065Z,98291.81
2022-10-15T12:38:32.752Z,98300.97
2022-10-15T12:41:06.557Z,98297.44
2022-10-15T12:43:38.266Z,98285.22
2022-10-15T12:46:07.493Z,98288.72
2022-10-15T12:48:45.615Z,98287.84
2022-10-15T12:51:21.591Z,98294.75
2022-10-15T12:53:50.248Z,98287.28
2022-10-15T12:56:16.990Z,98287.00
2022-10-15T12:58:47.233Z,98287.84
2022-10-15T13:01:13.925Z,98286.50
2022-10-15T13:03:52.548Z,98286.59
2022-10-15T13:06:22.734Z,98291.97
2022-10-15T13:09:10.860Z,98300.34
2022-10-15T13:12:01.014Z,98279.25
2022-10-15T13:14:39.397Z,98283.28
2022-10-15T13:17:20.869Z,98291.41
2022-10-15T13:20:04.428Z,98291.59
2022-10-15T13:22:33.134Z,98289.88
2022-10-15T13:24:59.914Z,98286.06
2022-10-15T13:27:37.339Z,98286.28
2022-10-15T13:30:16.002Z,98282.16
2022-10-15T13:32:51.594Z,98289.22
2022-10-15T13:35:22.643Z,98295.81
2022-10-15T13:37:50.260Z,98292.81
2022-10-15T13:40:25.824Z,98297.19
2022-10-15T13:43:03.551Z,98300.09
2022-10-15T13:45:30.610Z,98309.34
2022-10-15T13:47:57.459Z,98307.38
2022-10-15T13:50:33.126Z,98301.13
2022-10-15T13:53:32.203Z,98297.44
2022-10-15T13:56:02.539Z,98287.59
2022-10-15T13:58:33.104Z,98283.13
2022-10-15T14:01:18.685Z,98284.66
2022-10-15T14:03:49.871Z,98283.72
2022-10-15T14:06:27.587Z,98285.22
2022-10-15T14:09:00.227Z,98283.88
2022-10-15T14:11:28.867Z,98280.63
2022-10-15T14:13:58.011Z,98276.72
2022-10-15T14:16:42.728Z,98279.44
2022-10-15T14:19:13.434Z,98272.34
2022-10-15T14:21:47.240Z,98276.97
2022-10-15T14:24:18.682Z,98283.97
2022-10-15T14:26:46.301Z,98280.22
2022-10-15T14:29:25.762Z,98273.88
2022-10-15T14:31:53.701Z,98275.03
2022-10-15T14:34:35.718Z,98273.00
2022-10-15T14:37:24.175Z,98273.00
2022-10-15T14:40:08.453Z,98273.16
2022-10-15T14:42:39.912Z,98279.81
2022-10-15T14:45:20.695Z,98274.25
2022-10-15T14:47:50.462Z,98268.78
2022-10-15T14:50:18.597Z,98267.06
2022-10-15T14:52:48.354Z,98272.13
2022-10-15T14:55:31.529Z,98265.47
2022-10-15T14:57:58.587Z,98260.88
2022-10-15T15:00:34.216Z,98261.47
2022-10-15T15:03:03.949Z,98266.94
2022-10-15T15:05:30.818Z,98266.28
2022-10-15T15:07:57.625Z,98280.03
2022-10-15T15:10:27.033Z,98282.75
2022-10-15T15:12:56.544Z,98284.69
2022-10-15T15:15:26.716Z,98286.66
2022-10-15T15:17:53.486Z,98279.59
2022-10-15T15:20:20.563Z,98270.97
2022-10-15T15:22:50.347Z,98272.94
2022-10-15T15:25:20.631Z,98271.84
2022-10-15T15:27:47.801Z,98274.22
2022-10-15T15:30:20.805Z,98275.75
2022-10-15T15:32:48.469Z,98274.88
2022-10-15T15:35:20.310Z,98283.13
2022-10-15T15:37:47.414Z,98292.06
2022-10-15T15:40:14.432Z,98289.28
2022-10-15T15:42:41.559Z,98299.00
2022-10-15T15:45:17.659Z,98295.41
2022-10-15T15:47:44.359Z,98300.16
2022-10-15T15:50:10.998Z,98300.53
2022-10-15T15:52:39.708Z,98301.25
2022-10-15T15:55:10.861Z,98299.22
2022-10-15T15:57:38.033Z,98307.00
2022-10-15T16:00:07.162Z,98299.50
2022-10-15T16:02:33.914Z,98301.81
2022-10-15T16:05:01.886Z,98308.38
2022-10-15T16:07:31.776Z,98305.91
2022-10-15T16:09:58.803Z,98311.75
2022-10-15T16:12:25.527Z,98312.91
2022-10-15T16:14:52.348Z,98314.06
2022-10-15T16:17:19.145Z,98322.22
2022-10-15T16:19:45.841Z,98313.13
2022-10-15T16:22:13.340Z,98315.34
2022-10-15T16:24:40.090Z,98331.28
2022-10-15T16:27:06.911Z,98334.31
2022-10-15T16:29:33.725Z,98340.50
2022-10-15T16:32:00.367Z,98343.59
2022-10-15T16:34:27.197Z,98340.78
2022-10-15T16:36:54.465Z,98347.31
2022-10-15T16:39:21.165Z,98351.59
2022-10-15T16:41:47.932Z,98360.09
2022-10-15T16:44:14.685Z,98372.97
2022-10-15T16:46:41.368Z,98366.63
2022-10-15T16:49:08.793Z,98382.44
2022-10-15T16:51:37.441Z,98382.97
2022-10-15T16:54:06.563Z,98391.09
2022-10-15T16:56:34.472Z,98383.94
2022-10-15T16:59:01.144Z,98376.88
2022-10-15T17:01:29.258Z,98387.03
2022-10-15T17:03:58.157Z,98381.06
2022-10-15T17:06:28.018Z,98378.59
2022-10-15T17:09:00.459Z,98375.41
2022-10-15T17:11:29.837Z,98382.03
2022-10-15T17:13:59.569Z,98385.47
2022-10-15T17:16:36.265Z,98387.78
2022-10-15T17:19:04.001Z,98389.28
2022-10-15T17:21:31.427Z,98391.22
2022-10-15T17:24:00.885Z,98404.47
2022-10-15T17:26:33.139Z,98407.66
2022-10-15T17:29:00.289Z,98415.88
2022-10-15T17:31:27.679Z,98407.66
2022-10-15T17:33:57.666Z,98417.47
2022-10-15T17:36:26.099Z,98410.06
2022-10-15T17:38:54.992Z,98409.69
2022-10-15T17:41:24.162Z,98413.56
2022-10-15T17:43:51.455Z,98415.53
2022-10-15T17:46:20.705Z,98410.84
2022-10-15T17:48:48.166Z,98409.69
2022-10-15T17:51:17.824Z,98415.59
2022-10-15T17:53:45.134Z,98407.38
2022-10-15T17:56:14.810Z,98411.28
2022-10-15T17:58:42.806Z,98419.03
2022-10-15T18:01:28.209Z,98411.97
2022-10-15T18:04:07.371Z,98418.25
2022-10-15T18:06:34.298Z,98411.97
2022-10-15T18:09:01.294Z,98421.44
2022-10-15T18:11:31.925Z,98421.44
2022-10-15T18:13:59.092Z,98419.84
2022-10-15T18:16:26.513Z,98414.00
2022-10-15T18:18:54.388Z,98411.28
2022-10-15T18:21:23.245Z,98416.75
2022-10-15T18:23:49.908Z,98412.44
2022-10-15T18:26:20.756Z,98408.91
2022-10-15T18:28:50.089Z,98416.22
2022-10-15T18:31:17.717Z,98416.13
2022-10-15T18:33:49.153Z,98420.25
2022-10-15T18:36:24.526Z,98414.34
2022-10-15T18:38:51.704Z,98415.41
2022-10-15T18:41:26.691Z,98421.91
2022-10-15T18:43:58.966Z,98423.38
2022-10-15T18:46:27.494Z,98428.41
2022-10-15T18:48:55.186Z,98443.59
2022-10-15T18:51:22.640Z,98437.31
2022-10-15T18:53:49.317Z,98440.06
2022-10-15T18:56:16.083Z,98449.41
2022-10-15T18:58:42.960Z,98444.75
2022-10-15T19:01:26.510Z,98447.94
2022-10-15T19:03:58.699Z,98456.59
2022-10-15T19:06:29.713Z,98448.72
2022-10-15T19:09:01.625Z,98445.66
2022-10-15T19:11:28.343Z,98444.75
2022-10-15T19:13:59.446Z,98442.00
2022-10-15T19:16:27.254Z,98447.81
2022-10-15T19:18:54.063Z,98457.63
2022-10-15T19:21:20.893Z,98449.31
2022-10-15T19:23:47.697Z,98446.13
2022-10-15T19:26:15.613Z,98452.75
2022-10-15T19:28:42.680Z,98447.63
2022-10-15T19:31:12.713Z,98457.66
2022-10-15T19:33:39.503Z,98447.78
2022-10-15T19:36:06.746Z,98455.09
2022-10-15T19:38:33.688Z,98456.56
2022-10-15T19:41:06.538Z,98452.59
2022-10-15T19:43:33.239Z,98456.47
2022-10-15T19:46:03.459Z,98463.41
2022-10-15T19:48:30.691Z,98467.97
2022-10-15T19:51:01.231Z,98471.53
2022-10-15T19:53:28.160Z,98478.13
2022-10-15T19:56:00.905Z,98478.91
2022-10-15T19:58:28.017Z,98473.13
2022-10-15T20:00:55.451Z,98485.22
2022-10-15T20:03:23.963Z,98492.97
2022-10-15T20:05:50.941Z,98488.28
2022-10-15T20:08:18.604Z,98495.69
2022-10-15T20:10:48.816Z,98492.16
2022-10-15T20:13:15.823Z,98494.56
2022-10-15T20:15:48.401Z,98501.25
2022-10-15T20:18:15.961Z,98495.47
2022-10-15T20:20:45.429Z,98497.06
2022-10-15T20:23:14.857Z,98497.50
2022-10-15T20:25:42.845Z,98503.53
2022-10-15T20:28:18.919Z,98502.06
2022-10-15T20:30:45.822Z,98504.44
2022-10-15T20:33:13.142Z,98500.09
2022-10-15T20:35:40.739Z,98493.84
2022-10-15T20:38:08.254Z,98498.19
2022-10-15T20:40:38.949Z,98492.69
2022-10-15T20:43:05.684Z,98495.88
2022-10-15T20:45:40.596Z,98504.09
2022-10-15T20:48:16.035Z,98503.28
2022-10-15T20:50:43.639Z,98504.09
2022-10-15T20:53:10.566Z,98512.31
2022-10-15T20:55:37.501Z,98509.44
2022-10-15T20:58:04.649Z,98509.00
2022-10-15T21:00:31.405Z,98515.63
2022-10-15T21:02:58.155Z,98528.50
2022-10-15T21:05:25.119Z,98528.16
2022-10-15T21:07:51.950Z,98524.28
2022-10-15T21:10:19.061Z,98522.00
2022-10-15T21:12:45.824Z,98521.66
2022-10-15T21:15:12.580Z,98513.00
2022-10-15T21:17:39.311Z,98519.94
2022-10-15T21:20:06.677Z,98520.41
2022-10-15T21:22:34.049Z,98523.94
2022-10-15T21:25:01.861Z,98524.72
2022-10-15T21:27:28.970Z,98523.81
2022-10-15T21:29:55.737Z,98525.78
2022-10-15T21:32:22.409Z,98520.31
2022-10-15T21:34:49.077Z,98524.50
2022-10-15T21:37:15.862Z,98535.34
2022-10-15T21:39:42.528Z,98532.84
2022-10-15T21:42:09.164Z,98536.28
2022-10-15T21:44:35.875Z,98532.41
2022-10-15T21:47:04.331Z,98531.59
2022-10-15T21:49:31.051Z,98544.50
2022-10-15T21:51:57.762Z,98543.22
2022-10-15T21:54:24.677Z,98556.22
2022-10-15T21:56:51.370Z,98552.00
2022-10-15T21:59:18.120Z,98543.91
2022-10-15T22:01:45.569Z,98557.94
2022-10-15T22:04:12.371Z,98566.94
2022-10-15T22:06:40.332Z,98568.53
2022-10-15T22:09:08.207Z,98567.16
2022-10-15T22:11:37.781Z,98555.19
2022-10-15T22:14:07.938Z,98558.25
2022-10-15T22:16:37.035Z,98553.16
2022-10-15T22:19:05.134Z,98558.16
2022-10-15T22:21:36.088Z,98561.34
2022-10-15T22:24:06.364Z,98567.28
2022-10-15T22:26:36.078Z,98566.81
2022-10-15T22:29:04.651Z,98584.03
2022-10-15T22:31:32.260Z,98575.25
2022-10-15T22:33:59.189Z,98575.44
2022-10-15T22:36:30.452Z,98577.91
2022-10-15T22:39:05.057Z,98572.69
2022-10-15T22:41:34.708Z,98578.50
2022-10-15T22:44:01.735Z,98584.75
2022-10-15T22:46:31.637Z,98575.09
2022-10-15T22:48:58.356Z,98566.06
2022-10-15T22:51:25.235Z,98576.69
2022-10-15T22:53:57.507Z,98565.75
2022-10-15T22:56:25.532Z,98567.34
2022-10-15T22:58:52.370Z,98569.84
2022-10-15T23:01:22.497Z,98567.75
2022-10-15T23:03:52.008Z,98563.19
2022-10-15T23:06:20.418Z,98557.72
2022-10-15T23:08:47.416Z,98568.28
2022-10-15T23:11:20.214Z,98551.44
2022-10-15T23:13:48.061Z,98557.78
2022-10-15T23:16:18.697Z,98553.66
2022-10-15T23:18:46.813Z,98551.94
2022-10-15T23:21:16.493Z,98552.63
2022-10-15T23:23:44.847Z,98557.63
2022-10-15T23:26:13.935Z,98565.38
2022-10-15T23:28:41.247Z,98574.25
2022-10-15T23:31:15.178Z,98582.34
2022-10-15T23:33:41.926Z,98586.44
2022-10-15T23:36:09.574Z,98584.69
2022-10-15T23:38:36.281Z,98583.25
2022-10-15T23:41:07.290Z,98582.78
2022-10-15T23:43:34.576Z,98594.84
2022-10-15T23:46:01.523Z,98585.63
2022-10-15T23:48:29.054Z,98588.81
2022-10-15T23:51:00.870Z,98587.81
2022-10-15T23:53:32.974Z,98586.78
2022-10-15T23:56:02.479Z,98587.72
2022-10-15T23:58:29.248Z,98595.22
